createdAt,value
2019-04-26T00:00:45.883Z,7.77
2019-04-26T00:03:16.243Z,8.20
2019-04-26T00:05:45.517Z,8.03
2019-04-26T00:08:15.905Z,8.60
2019-04-26T00:10:51.498Z,7.70
2019-04-26T00:13:33.466Z,7.93
2019-04-26T00:16:16.812Z,7.90
2019-04-26T00:18:45.217Z,8.10
2019-04-26T00:21:14.068Z,7.90
2019-04-26T00:23:43.707Z,7.80
2019-04-26T00:26:13.434Z,7.97
2019-04-26T00:28:41.934Z,8.07
2019-04-26T00:31:11.387Z,8.20
2019-04-26T00:33:39.919Z,7.60
2019-04-26T00:36:08.825Z,7.93
2019-04-26T00:38:37.161Z,8.10
2019-04-26T00:41:05.550Z,8.10
2019-04-26T00:43:34.704Z,8.70
2019-04-26T00:46:04.261Z,9.73
2019-04-26T00:48:33.494Z,8.60
2019-04-26T00:51:03.998Z,8.50
2019-04-26T00:53:34.972Z,8.50
2019-04-26T00:56:05.481Z,8.60
2019-04-26T00:58:34.795Z,8.63
2019-04-26T01:01:03.182Z,9.13
2019-04-26T01:03:31.583Z,9.17
2019-04-26T01:06:01.626Z,9.20
2019-04-26T01:08:30.003Z,8.37
2019-04-26T01:10:58.515Z,9.70
2019-04-26T01:13:27.178Z,10.00
2019-04-26T01:15:55.818Z,9.00
2019-04-26T01:18:24.487Z,9.60
2019-04-26T01:20:56.064Z,9.57
2019-04-26T01:23:27.373Z,9.60
2019-04-26T01:26:10.903Z,8.73
2019-04-26T01:28:42.334Z,8.77
2019-04-26T01:31:12.068Z,8.97
2019-04-26T01:33:40.804Z,8.93
2019-04-26T01:36:13.409Z,9.17
2019-04-26T01:38:39.520Z,9.00
2019-04-26T01:41:14.709Z,9.30
2019-04-26T01:43:53.215Z,9.40
2019-04-26T01:46:31.630Z,9.57
2019-04-26T01:49:05.932Z,10.00
2019-04-26T01:51:41.833Z,10.03
2019-04-26T01:54:13.262Z,10.27
2019-04-26T01:56:41.707Z,9.30
2019-04-26T01:59:13.383Z,9.63
2019-04-26T02:01:43.476Z,9.30
2019-04-26T02:04:11.958Z,10.03
2019-04-26T02:06:40.345Z,9.80
2019-04-26T02:09:10.168Z,10.57
2019-04-26T02:11:39.827Z,9.10
2019-04-26T02:14:08.554Z,9.60
2019-04-26T02:16:37.378Z,9.07
2019-04-26T02:19:05.991Z,8.50
2019-04-26T02:21:36.616Z,8.27
2019-04-26T02:24:06.894Z,7.93
2019-04-26T02:26:40.348Z,8.27
2019-04-26T02:29:20.876Z,9.00
2019-04-26T02:32:04.088Z,9.13
2019-04-26T02:34:35.989Z,8.47
2019-04-26T02:37:07.599Z,9.43
2019-04-26T02:39:39.079Z,9.53
2019-04-26T02:42:16.641Z,8.87
2019-04-26T02:45:06.214Z,9.97
2019-04-26T02:47:54.129Z,9.23
2019-04-26T02:50:34.793Z,9.80
2019-04-26T02:53:20.671Z,9.07
2019-04-26T02:56:12.004Z,10.30
2019-04-26T02:58:43.437Z,10.17
2019-04-26T03:01:12.183Z,11.57
2019-04-26T03:03:40.574Z,9.90
2019-04-26T03:06:09.101Z,10.50
2019-04-26T03:08:39.381Z,10.20
2019-04-26T03:11:10.849Z,10.00
2019-04-26T03:13:43.948Z,10.90
2019-04-26T03:16:23.026Z,11.67
2019-04-26T03:19:02.551Z,11.20
2019-04-26T03:21:46.592Z,10.50
2019-04-26T03:24:18.332Z,10.50
2019-04-26T03:26:58.452Z,10.77
2019-04-26T03:29:31.834Z,11.50
2019-04-26T03:32:23.397Z,11.30
2019-04-26T03:34:59.454Z,12.30
2019-04-26T03:37:47.374Z,10.53
2019-04-26T03:40:40.298Z,10.03
2019-04-26T03:43:14.624Z,10.53
2019-04-26T03:46:07.136Z,10.47
2019-04-26T03:48:47.681Z,10.60
2019-04-26T03:51:43.102Z,11.03
2019-04-26T03:54:24.209Z,9.63
2019-04-26T03:57:03.042Z,10.13
2019-04-26T03:59:38.342Z,10.47
2019-04-26T04:02:17.174Z,10.03
2019-04-26T04:04:59.109Z,9.00
2019-04-26T04:07:39.503Z,9.77
2019-04-26T04:10:19.379Z,9.77
2019-04-26T04:12:50.949Z,9.43
2019-04-26T04:15:25.456Z,10.13
2019-04-26T04:18:04.591Z,10.13
2019-04-26T04:20:48.079Z,10.83
2019-04-26T04:23:25.832Z,10.57
2019-04-26T04:25:56.852Z,11.90
2019-04-26T04:28:46.490Z,13.10
2019-04-26T04:31:27.170Z,13.60
2019-04-26T04:34:01.739Z,12.63
2019-04-26T04:36:33.218Z,12.90
2019-04-26T04:39:12.531Z,12.23
2019-04-26T04:41:42.979Z,12.17
2019-04-26T04:44:25.157Z,12.80
2019-04-26T04:47:24.126Z,13.37
2019-04-26T04:50:15.375Z,14.20
2019-04-26T04:52:50.089Z,13.73
2019-04-26T04:55:36.431Z,13.90
2019-04-26T04:58:07.857Z,12.83
2019-04-26T05:00:57.652Z,13.37
2019-04-26T05:03:44.066Z,12.97
2019-04-26T05:06:23.585Z,10.83
2019-04-26T05:09:13.044Z,13.00
2019-04-26T05:12:02.233Z,11.23
2019-04-26T05:14:43.672Z,11.20
2019-04-26T05:17:38.340Z,13.10
2019-04-26T05:20:28.959Z,10.97
2019-04-26T05:23:17.079Z,11.10
2019-04-26T05:26:01.945Z,12.07
2019-04-26T05:28:35.044Z,11.93
2019-04-26T05:31:10.581Z,11.30
2019-04-26T05:34:05.695Z,11.20
2019-04-26T05:36:55.030Z,11.60
2019-04-26T05:39:32.275Z,10.40
2019-04-26T05:42:23.191Z,10.50
2019-04-26T05:45:21.829Z,10.30
2019-04-26T05:48:19.304Z,12.07
2019-04-26T05:50:58.208Z,12.33
2019-04-26T05:53:55.099Z,11.00
2019-04-26T05:56:33.741Z,12.37
2019-04-26T05:59:23.436Z,12.17
2019-04-26T06:02:13.757Z,12.70
2019-04-26T06:05:25.996Z,12.00
2019-04-26T06:08:14.014Z,13.63
2019-04-26T06:10:52.724Z,12.17
2019-04-26T06:13:57.822Z,13.67
2019-04-26T06:16:52.163Z,12.30
2019-04-26T06:19:43.908Z,12.47
2019-04-26T06:22:21.234Z,14.13
2019-04-26T06:24:54.238Z,14.63
2019-04-26T06:27:27.349Z,15.93
2019-04-26T06:30:01.393Z,15.33
2019-04-26T06:32:35.838Z,15.33
2019-04-26T06:35:20.321Z,16.53
2019-04-26T06:38:11.938Z,14.70
2019-04-26T06:41:11.997Z,15.53
2019-04-26T06:43:47.722Z,14.50
2019-04-26T06:46:48.623Z,14.97
2019-04-26T06:49:36.648Z,14.07
2019-04-26T06:52:10.902Z,13.60
2019-04-26T06:54:59.769Z,13.47
2019-04-26T06:57:52.214Z,13.70
2019-04-26T07:00:24.934Z,13.80
2019-04-26T07:03:23.846Z,13.93
2019-04-26T07:06:04.504Z,14.00
2019-04-26T07:08:39.048Z,14.70
2019-04-26T07:11:35.572Z,13.60
2019-04-26T07:14:36.122Z,13.73
2019-04-26T07:17:12.114Z,13.80
2019-04-26T07:20:14.035Z,14.40
2019-04-26T07:23:02.343Z,13.90
2019-04-26T07:26:01.646Z,13.63
2019-04-26T07:28:51.349Z,14.80
2019-04-26T07:31:29.008Z,15.43
2019-04-26T07:34:24.988Z,14.70
2019-04-26T07:37:16.320Z,14.63
2019-04-26T07:39:52.255Z,13.97
2019-04-26T07:42:37.922Z,14.83
2019-04-26T07:45:20.086Z,13.50
2019-04-26T07:48:19.249Z,13.40
2019-04-26T07:51:17.695Z,12.60
2019-04-26T07:53:55.130Z,13.60
2019-04-26T07:56:41.583Z,10.40
2019-04-26T07:59:42.169Z,11.53
2019-04-26T08:02:34.175Z,9.90
2019-04-26T08:05:11.737Z,10.30
2019-04-26T08:07:43.446Z,9.43
2019-04-26T08:10:17.613Z,9.30
2019-04-26T08:13:04.893Z,9.20
2019-04-26T08:15:39.495Z,10.27
2019-04-26T08:18:13.107Z,9.40
2019-04-26T08:20:49.130Z,9.63
2019-04-26T08:23:39.482Z,9.80
2019-04-26T08:26:03.373Z,9.47
2019-04-26T08:28:34.800Z,9.53
2019-04-26T08:31:07.456Z,9.03
2019-04-26T08:33:48.263Z,9.47
2019-04-26T08:36:14.663Z,8.37
2019-04-26T08:38:45.153Z,9.20
2019-04-26T08:41:14.183Z,8.73
2019-04-26T08:44:03.715Z,8.87
2019-04-26T08:46:44.198Z,9.10
2019-04-26T08:49:19.450Z,9.30
2019-04-26T08:51:52.136Z,9.00
2019-04-26T08:54:23.577Z,9.50
2019-04-26T08:57:04.218Z,10.90
2019-04-26T08:59:35.652Z,9.10
2019-04-26T09:02:08.335Z,10.10
2019-04-26T09:04:50.149Z,10.13
2019-04-26T09:07:23.227Z,9.73
2019-04-26T09:09:57.372Z,10.97
2019-04-26T09:12:27.532Z,9.00
2019-04-26T09:14:58.967Z,9.60
2019-04-26T09:17:27.687Z,9.10
2019-04-26T09:19:58.260Z,10.57
2019-04-26T09:22:37.350Z,8.20
2019-04-26T09:25:22.716Z,8.50
2019-04-26T09:27:55.645Z,8.07
2019-04-26T09:30:38.461Z,8.70
2019-04-26T09:33:09.466Z,8.80
2019-04-26T09:35:38.468Z,8.37
2019-04-26T09:38:06.836Z,8.00
2019-04-26T09:40:35.211Z,9.63
2019-04-26T09:43:15.227Z,8.43
2019-04-26T09:45:43.220Z,10.07
2019-04-26T09:48:16.194Z,12.30
2019-04-26T09:50:48.635Z,9.33
2019-04-26T09:53:17.404Z,9.70
2019-04-26T09:55:45.841Z,9.70
2019-04-26T09:58:14.455Z,8.93
2019-04-26T10:00:44.151Z,9.70
2019-04-26T10:03:13.578Z,9.40
2019-04-26T10:05:42.048Z,9.97
2019-04-26T10:08:12.805Z,11.93
2019-04-26T10:10:41.032Z,13.20
2019-04-26T10:13:15.070Z,12.80
2019-04-26T10:15:58.209Z,10.60
2019-04-26T10:18:27.784Z,10.17
2019-04-26T10:20:56.422Z,12.10
2019-04-26T10:23:24.814Z,12.17
2019-04-26T10:25:53.655Z,10.97
2019-04-26T10:28:23.119Z,9.80
2019-04-26T10:30:51.579Z,10.23
2019-04-26T10:33:20.040Z,11.07
2019-04-26T10:35:48.450Z,12.80
2019-04-26T10:38:19.301Z,12.83
2019-04-26T10:40:47.057Z,12.47
2019-04-26T10:43:15.458Z,11.97
2019-04-26T10:45:46.008Z,12.17
2019-04-26T10:48:15.531Z,13.77
2019-04-26T10:50:45.294Z,13.70
2019-04-26T10:53:25.560Z,12.30
2019-04-26T10:56:12.211Z,13.40
2019-04-26T10:58:42.296Z,14.80
2019-04-26T11:01:14.293Z,14.10
2019-04-26T11:03:42.678Z,10.67
2019-04-26T11:06:11.493Z,9.40
2019-04-26T11:08:39.959Z,10.57
2019-04-26T11:11:10.299Z,11.03
2019-04-26T11:13:38.890Z,10.87
2019-04-26T11:16:08.962Z,10.70
2019-04-26T11:18:37.515Z,10.90
2019-04-26T11:21:06.071Z,11.57
2019-04-26T11:23:34.679Z,10.70
2019-04-26T11:26:03.299Z,9.93
2019-04-26T11:28:31.762Z,9.80
2019-04-26T11:31:00.535Z,10.60
2019-04-26T11:33:28.909Z,9.07
2019-04-26T11:35:57.534Z,11.30
2019-04-26T11:38:26.896Z,9.80
2019-04-26T11:41:05.733Z,14.27
2019-04-26T11:43:26.178Z,10.70
2019-04-26T11:46:04.146Z,9.80
2019-04-26T11:48:25.434Z,10.03
2019-04-26T11:50:55.611Z,9.00
2019-04-26T11:53:24.020Z,8.60
2019-04-26T11:55:54.329Z,9.40
2019-04-26T11:58:23.684Z,9.13
2019-04-26T12:00:53.920Z,9.70
2019-04-26T12:03:24.927Z,10.40
2019-04-26T12:06:09.291Z,9.67
2019-04-26T12:08:45.083Z,8.87
2019-04-26T12:11:18.600Z,9.60
2019-04-26T12:13:43.694Z,8.67
2019-04-26T12:16:14.527Z,8.57
2019-04-26T12:18:44.149Z,9.20
2019-04-26T12:21:12.305Z,9.07
2019-04-26T12:23:40.722Z,8.90
2019-04-26T12:26:09.097Z,8.50
2019-04-26T12:28:40.024Z,9.10
2019-04-26T12:31:07.604Z,8.27
2019-04-26T12:33:39.202Z,9.17
2019-04-26T12:36:09.455Z,9.13
2019-04-26T12:38:36.416Z,9.07
2019-04-26T12:41:04.794Z,9.60
2019-04-26T12:43:33.187Z,9.47
2019-04-26T12:46:14.239Z,10.13
2019-04-26T12:48:45.990Z,9.83
2019-04-26T12:51:13.517Z,9.60
2019-04-26T12:53:42.155Z,10.30
2019-04-26T12:56:10.538Z,10.30
2019-04-26T12:58:38.937Z,9.20
2019-04-26T13:01:12.087Z,10.10
2019-04-26T13:03:39.487Z,9.77
2019-04-26T13:06:08.028Z,9.43
2019-04-26T13:08:36.434Z,10.50
2019-04-26T13:11:22.915Z,10.23
2019-04-26T13:13:52.943Z,9.70
2019-04-26T13:16:26.302Z,10.90
2019-04-26T13:18:55.772Z,9.87
2019-04-26T13:21:24.902Z,10.07
2019-04-26T13:23:55.657Z,9.57
2019-04-26T13:26:23.749Z,9.00
2019-04-26T13:28:56.974Z,9.20
2019-04-26T13:31:22.811Z,9.63
2019-04-26T13:33:51.491Z,10.10
2019-04-26T13:36:20.215Z,10.80
2019-04-26T13:38:48.581Z,9.23
2019-04-26T13:41:16.979Z,9.87
2019-04-26T13:43:45.663Z,10.13
2019-04-26T13:46:30.831Z,9.40
2019-04-26T13:49:18.039Z,9.97
2019-04-26T13:51:47.089Z,10.20
2019-04-26T13:54:16.443Z,10.50
2019-04-26T13:56:45.636Z,11.17
2019-04-26T13:59:14.101Z,11.37
2019-04-26T14:01:42.630Z,10.43
2019-04-26T14:04:11.076Z,11.67
2019-04-26T14:06:40.838Z,10.40
2019-04-26T14:09:11.612Z,10.73
2019-04-26T14:11:40.053Z,9.13
2019-04-26T14:14:08.543Z,8.80
2019-04-26T14:16:36.997Z,9.73
2019-04-26T14:19:05.568Z,9.27
2019-04-26T14:21:34.857Z,9.13
2019-04-26T14:24:24.097Z,9.23
2019-04-26T14:26:52.297Z,8.77
2019-04-26T14:29:20.676Z,8.07
2019-04-26T14:31:51.342Z,9.93
2019-04-26T14:34:19.266Z,8.30
2019-04-26T14:36:47.997Z,8.40
2019-04-26T14:39:19.652Z,9.63
2019-04-26T14:41:46.671Z,8.63
2019-04-26T14:44:16.064Z,8.97
2019-04-26T14:46:48.808Z,8.07
2019-04-26T14:49:14.728Z,8.10
2019-04-26T14:51:43.153Z,8.00
2019-04-26T14:54:12.513Z,8.73
2019-04-26T14:56:51.656Z,8.00
2019-04-26T14:59:12.211Z,7.90
2019-04-26T15:01:48.241Z,7.80
2019-04-26T15:04:33.623Z,7.50
2019-04-26T15:07:05.286Z,8.30
2019-04-26T15:09:34.689Z,7.87
2019-04-26T15:12:03.538Z,9.03
2019-04-26T15:14:33.258Z,8.40
2019-04-26T15:17:02.758Z,8.60
2019-04-26T15:19:34.637Z,7.97
2019-04-26T15:22:04.109Z,8.40
2019-04-26T15:24:34.999Z,7.70
2019-04-26T15:27:03.310Z,8.13
2019-04-26T15:29:32.350Z,8.63
2019-04-26T15:32:03.228Z,9.80
2019-04-26T15:34:31.388Z,8.60
2019-04-26T15:36:59.927Z,10.17
2019-04-26T15:39:50.296Z,10.60
2019-04-26T15:42:38.115Z,8.67
2019-04-26T15:45:09.838Z,11.10
2019-04-26T15:47:55.934Z,9.80
2019-04-26T15:50:29.076Z,11.00
2019-04-26T15:52:57.466Z,8.40
2019-04-26T15:55:26.008Z,9.50
2019-04-26T15:57:54.599Z,8.37
2019-04-26T16:00:23.156Z,9.00
2019-04-26T16:02:52.847Z,9.80
2019-04-26T16:05:24.410Z,9.77
2019-04-26T16:07:52.981Z,9.43
2019-04-26T16:10:25.602Z,9.00
2019-04-26T16:12:52.380Z,9.00
2019-04-26T16:15:20.824Z,10.23
2019-04-26T16:17:49.847Z,9.57
2019-04-26T16:20:18.473Z,8.87
2019-04-26T16:22:49.081Z,9.43
2019-04-26T16:25:17.264Z,7.90
2019-04-26T16:27:45.756Z,9.10
2019-04-26T16:30:28.440Z,9.17
2019-04-26T16:32:58.724Z,8.93
2019-04-26T16:35:28.447Z,7.30
2019-04-26T16:37:59.953Z,8.10
2019-04-26T16:40:27.788Z,9.43
2019-04-26T16:42:59.431Z,8.43
2019-04-26T16:45:26.462Z,8.27
2019-04-26T16:47:55.079Z,8.07
2019-04-26T16:50:31.165Z,8.57
2019-04-26T16:52:53.959Z,8.57
2019-04-26T16:55:24.710Z,8.83
2019-04-26T16:57:55.506Z,9.07
2019-04-26T17:00:47.019Z,9.80
2019-04-26T17:02:52.996Z,11.97
2019-04-26T17:05:35.635Z,9.70
2019-04-26T17:07:53.872Z,9.00
2019-04-26T17:10:24.681Z,8.40
2019-04-26T17:12:54.335Z,10.87
2019-04-26T17:15:22.743Z,9.27
2019-04-26T17:17:52.678Z,10.80
2019-04-26T17:20:21.269Z,9.27
2019-04-26T17:23:06.618Z,8.50
2019-04-26T17:25:36.849Z,8.77
2019-04-26T17:28:05.366Z,9.30
2019-04-26T17:30:40.818Z,9.33
2019-04-26T17:33:04.591Z,8.50
2019-04-26T17:35:36.752Z,7.23
2019-04-26T17:38:05.176Z,6.93
2019-04-26T17:40:36.357Z,7.50
2019-04-26T17:43:05.461Z,7.30
2019-04-26T17:45:36.242Z,7.90
2019-04-26T17:48:06.549Z,8.00
2019-04-26T17:50:35.325Z,7.07
2019-04-26T17:53:06.582Z,7.23
2019-04-26T17:55:34.646Z,6.23
2019-04-26T17:58:11.806Z,5.80
2019-04-26T18:00:45.552Z,7.23
2019-04-26T18:03:07.649Z,6.17
2019-04-26T18:05:55.833Z,9.07
2019-04-26T18:08:31.303Z,7.50
2019-04-26T18:10:41.338Z,9.43
2019-04-26T18:13:11.316Z,7.47
2019-04-26T18:15:39.962Z,6.53
2019-04-26T18:18:13.875Z,7.63
2019-04-26T18:20:47.492Z,7.37
2019-04-26T18:23:18.783Z,8.70
2019-04-26T18:25:47.308Z,7.50
2019-04-26T18:28:16.398Z,8.20
2019-04-26T18:30:47.600Z,7.37
2019-04-26T18:33:17.660Z,7.87
2019-04-26T18:35:49.254Z,8.30
2019-04-26T18:38:15.649Z,8.00
2019-04-26T18:40:59.841Z,7.10
2019-04-26T18:43:17.625Z,7.57
2019-04-26T18:45:45.907Z,7.83
2019-04-26T18:48:14.567Z,7.30
2019-04-26T18:50:45.725Z,7.97
2019-04-26T18:53:15.017Z,7.83
2019-04-26T18:55:45.358Z,8.30
2019-04-26T18:58:14.007Z,7.90
2019-04-26T19:00:43.737Z,7.63
2019-04-26T19:03:14.200Z,7.70
2019-04-26T19:05:43.166Z,7.33
2019-04-26T19:08:12.786Z,7.10
2019-04-26T19:10:43.545Z,7.93
2019-04-26T19:13:13.906Z,7.50
2019-04-26T19:15:46.832Z,9.37
2019-04-26T19:18:19.722Z,7.67
2019-04-26T19:20:52.639Z,8.53
2019-04-26T19:23:24.448Z,7.70
2019-04-26T19:25:52.020Z,8.87
2019-04-26T19:28:22.298Z,8.43
2019-04-26T19:30:53.001Z,8.67
2019-04-26T19:33:21.608Z,7.27
2019-04-26T19:35:50.353Z,8.20
2019-04-26T19:38:18.730Z,7.83
2019-04-26T19:40:48.101Z,7.20
2019-04-26T19:43:28.086Z,7.60
2019-04-26T19:45:52.023Z,7.07
2019-04-26T19:48:26.098Z,7.93
2019-04-26T19:50:56.441Z,7.90
2019-04-26T19:53:26.463Z,7.20
2019-04-26T19:55:59.414Z,8.07
2019-04-26T19:58:32.119Z,10.13
2019-04-26T20:01:01.976Z,8.90
2019-04-26T20:03:32.014Z,9.43
2019-04-26T20:06:00.921Z,8.00
2019-04-26T20:08:29.554Z,8.40
2019-04-26T20:10:57.988Z,7.43
2019-04-26T20:13:26.406Z,7.30
2019-04-26T20:15:57.446Z,7.50
2019-04-26T20:18:25.212Z,7.33
2019-04-26T20:20:53.598Z,6.77
2019-04-26T20:23:22.842Z,6.90
2019-04-26T20:25:52.971Z,6.93
2019-04-26T20:28:22.808Z,8.63
2019-04-26T20:31:05.823Z,8.20
2019-04-26T20:33:31.243Z,7.00
2019-04-26T20:36:01.950Z,7.03
2019-04-26T20:38:35.857Z,7.13
2019-04-26T20:41:01.541Z,7.80
2019-04-26T20:43:32.070Z,7.20
2019-04-26T20:46:12.421Z,7.27
2019-04-26T20:48:33.116Z,7.60
2019-04-26T20:51:02.217Z,8.73
2019-04-26T20:53:40.102Z,10.00
2019-04-26T20:56:03.803Z,10.70
2019-04-26T20:58:31.390Z,9.30
2019-04-26T21:01:01.446Z,7.70
2019-04-26T21:03:31.807Z,8.37
2019-04-26T21:06:02.891Z,7.70
2019-04-26T21:08:31.702Z,7.80
2019-04-26T21:11:01.120Z,7.60
2019-04-26T21:13:31.050Z,10.47
2019-04-26T21:16:03.430Z,7.90
2019-04-26T21:18:33.532Z,7.93
2019-04-26T21:21:01.477Z,8.27
2019-04-26T21:23:35.068Z,7.30
2019-04-26T21:26:02.949Z,7.70
2019-04-26T21:28:38.123Z,7.50
2019-04-26T21:31:10.319Z,7.73
2019-04-26T21:33:40.478Z,9.40
2019-04-26T21:36:26.562Z,7.50
2019-04-26T21:39:04.072Z,7.87
2019-04-26T21:41:34.484Z,7.27
2019-04-26T21:44:03.183Z,7.80
2019-04-26T21:46:31.595Z,8.10
2019-04-26T21:49:00.247Z,8.87
2019-04-26T21:51:28.637Z,7.63
2019-04-26T21:53:57.321Z,8.30
2019-04-26T21:56:25.698Z,7.40
2019-04-26T21:58:54.088Z,8.83
2019-04-26T22:01:25.203Z,7.30
2019-04-26T22:03:58.175Z,8.60
2019-04-26T22:06:26.909Z,8.03
2019-04-26T22:08:59.313Z,9.33
2019-04-26T22:11:25.799Z,8.53
2019-04-26T22:14:03.065Z,8.07
2019-04-26T22:16:38.101Z,8.63
2019-04-26T22:19:16.716Z,7.30
2019-04-26T22:21:59.416Z,7.87
2019-04-26T22:24:36.145Z,8.47
2019-04-26T22:27:04.854Z,8.50
2019-04-26T22:29:33.481Z,8.20
2019-04-26T22:32:03.678Z,8.80
2019-04-26T22:34:32.254Z,7.97
2019-04-26T22:37:01.358Z,8.33
2019-04-26T22:39:32.718Z,7.87
2019-04-26T22:42:02.831Z,7.70
2019-04-26T22:44:51.463Z,8.67
2019-04-26T22:47:24.763Z,8.20
2019-04-26T22:49:53.154Z,8.10
2019-04-26T22:52:23.066Z,7.67
2019-04-26T22:54:53.703Z,8.10
2019-04-26T22:57:23.254Z,7.73
2019-04-26T22:59:53.365Z,7.97
2019-04-26T23:02:25.830Z,7.53
2019-04-26T23:04:55.919Z,7.60
2019-04-26T23:07:26.018Z,7.93
2019-04-26T23:09:55.479Z,7.87
2019-04-26T23:12:37.745Z,7.43
2019-04-26T23:15:30.127Z,8.00
2019-04-26T23:18:03.713Z,8.30
2019-04-26T23:20:39.629Z,8.10
2019-04-26T23:23:08.730Z,8.60
2019-04-26T23:25:37.522Z,8.30
2019-04-26T23:28:06.142Z,8.60
2019-04-26T23:30:35.107Z,8.27
2019-04-26T23:33:03.496Z,8.20
2019-04-26T23:35:37.521Z,8.27
2019-04-26T23:38:05.198Z,8.30
2019-04-26T23:40:33.442Z,8.20
2019-04-26T23:43:02.876Z,8.73
2019-04-26T23:45:33.356Z,8.50
2019-04-26T23:48:03.408Z,7.67
2019-04-26T23:50:33.948Z,7.77
2019-04-26T23:53:03.025Z,7.33
2019-04-26T23:55:31.829Z,7.60
2019-04-26T23:58:04.942Z,7.53
